sensor_id;sensor_type;location;lat;lon;timestamp;temperature;humidity
44843;DHT22;31884;52.538;13.820;2022-10-28T00:02:24;11.40;99.90
44843;DHT22;31884;52.538;13.820;2022-10-28T00:04:49;11.40;99.90
44843;DHT22;31884;52.538;13.820;2022-10-28T00:07:14;11.40;99.90
44843;DHT22;31884;52.538;13.820;2022-10-28T00:09:40;11.40;99.90
44843;DHT22;31884;52.538;13.820;2022-10-28T00:12:05;11.40;99.90
44843;DHT22;31884;52.538;13.820;2022-10-28T00:14:31;11.40;99.90
44843;DHT22;31884;52.538;13.820;2022-10-28T00:16:57;11.40;99.90
44843;DHT22;31884;52.538;13.820;2022-10-28T00:19:22;11.30;99.90
44843;DHT22;31884;52.538;13.820;2022-10-28T00:21:48;11.30;99.90
44843;DHT22;31884;52.538;13.820;2022-10-28T00:24:13;11.30;99.90
44843;DHT22;31884;52.538;13.820;2022-10-28T00:26:40;11.30;99.90
44843;DHT22;31884;52.538;13.820;2022-10-28T00:29:12;11.30;99.90
44843;DHT22;31884;52.538;13.820;2022-10-28T00:31:38;11.30;99.90
44843;DHT22;31884;52.538;13.820;2022-10-28T00:34:07;11.30;99.90
44843;DHT22;31884;52.538;13.820;2022-10-28T00:36:36;11.30;99.90
44843;DHT22;31884;52.538;13.820;2022-10-28T00:39:07;11.40;99.90
44843;DHT22;31884;52.538;13.820;2022-10-28T00:41:36;11.50;99.90
44843;DHT22;31884;52.538;13.820;2022-10-28T00:50:04;11.60;99.90
44843;DHT22;31884;52.538;13.820;2022-10-28T00:52:32;11.60;99.90
44843;DHT22;31884;52.538;13.820;2022-10-28T00:54:59;11.60;99.90
44843;DHT22;31884;52.538;13.820;2022-10-28T00:57:34;11.60;99.90
44843;DHT22;31884;52.538;13.820;2022-10-28T01:00:03;11.60;99.90
44843;DHT22;31884;52.538;13.820;2022-10-28T01:02:30;11.50;99.90
44843;DHT22;31884;52.538;13.820;2022-10-28T01:04:57;11.50;99.90
44843;DHT22;31884;52.538;13.820;2022-10-28T01:07:23;11.50;99.90
44843;DHT22;31884;52.538;13.820;2022-10-28T01:09:50;11.50;99.90
44843;DHT22;31884;52.538;13.820;2022-10-28T01:12:31;11.40;99.90
44843;DHT22;31884;52.538;13.820;2022-10-28T01:15:13;11.30;99.90
44843;DHT22;31884;52.538;13.820;2022-10-28T01:29:43;11.30;99.90
44843;DHT22;31884;52.538;13.820;2022-10-28T01:32:37;11.40;99.90
44843;DHT22;31884;52.538;13.820;2022-10-28T01:37:59;11.40;99.90
44843;DHT22;31884;52.538;13.820;2022-10-28T01:40:33;11.40;99.90
44843;DHT22;31884;52.538;13.820;2022-10-28T01:43:12;11.50;99.90
44843;DHT22;31884;52.538;13.820;2022-10-28T01:45:50;11.50;99.90
44843;DHT22;31884;52.538;13.820;2022-10-28T01:48:22;11.50;99.90
44843;DHT22;31884;52.538;13.820;2022-10-28T01:50:57;11.60;99.90
44843;DHT22;31884;52.538;13.820;2022-10-28T01:53:28;11.50;99.90
44843;DHT22;31884;52.538;13.820;2022-10-28T01:55:58;11.50;99.90
44843;DHT22;31884;52.538;13.820;2022-10-28T01:58:29;11.60;99.90
44843;DHT22;31884;52.538;13.820;2022-10-28T02:00:55;11.60;99.90
44843;DHT22;31884;52.538;13.820;2022-10-28T02:03:22;11.60;99.90
44843;DHT22;31884;52.538;13.820;2022-10-28T02:05:50;11.60;99.90
44843;DHT22;31884;52.538;13.820;2022-10-28T02:08:40;11.60;99.90
44843;DHT22;31884;52.538;13.820;2022-10-28T02:18:55;11.60;99.90
44843;DHT22;31884;52.538;13.820;2022-10-28T02:21:32;11.60;99.90
44843;DHT22;31884;52.538;13.820;2022-10-28T02:24:04;11.60;99.90
44843;DHT22;31884;52.538;13.820;2022-10-28T02:26:37;11.60;99.90
44843;DHT22;31884;52.538;13.820;2022-10-28T02:29:13;11.60;99.90
44843;DHT22;31884;52.538;13.820;2022-10-28T02:31:52;11.60;99.90
44843;DHT22;31884;52.538;13.820;2022-10-28T02:34:44;11.50;99.90
44843;DHT22;31884;52.538;13.820;2022-10-28T02:37:14;11.50;99.90
44843;DHT22;31884;52.538;13.820;2022-10-28T02:39:46;11.40;99.90
44843;DHT22;31884;52.538;13.820;2022-10-28T02:42:18;11.40;99.90
44843;DHT22;31884;52.538;13.820;2022-10-28T02:44:49;11.40;99.90
44843;DHT22;31884;52.538;13.820;2022-10-28T02:47:19;11.40;99.90
44843;DHT22;31884;52.538;13.820;2022-10-28T02:49:51;11.40;99.90
44843;DHT22;31884;52.538;13.820;2022-10-28T02:52:19;11.40;99.90
44843;DHT22;31884;52.538;13.820;2022-10-28T02:54:53;11.40;99.90
44843;DHT22;31884;52.538;13.820;2022-10-28T02:57:22;11.40;99.90
44843;DHT22;31884;52.538;13.820;2022-10-28T02:59:57;11.30;99.90
44843;DHT22;31884;52.538;13.820;2022-10-28T03:02:23;11.30;99.90
44843;DHT22;31884;52.538;13.820;2022-10-28T03:04:49;11.30;99.90
44843;DHT22;31884;52.538;13.820;2022-10-28T03:07:15;11.30;99.90
44843;DHT22;31884;52.538;13.820;2022-10-28T03:09:40;11.20;99.90
44843;DHT22;31884;52.538;13.820;2022-10-28T03:12:06;11.20;99.90
44843;DHT22;31884;52.538;13.820;2022-10-28T03:14:31;11.20;99.90
44843;DHT22;31884;52.538;13.820;2022-10-28T03:16:57;11.20;99.90
44843;DHT22;31884;52.538;13.820;2022-10-28T03:19:22;11.20;99.90
44843;DHT22;31884;52.538;13.820;2022-10-28T03:21:48;11.10;99.90
44843;DHT22;31884;52.538;13.820;2022-10-28T03:24:13;11.10;99.90
44843;DHT22;31884;52.538;13.820;2022-10-28T03:26:39;11.10;99.90
44843;DHT22;31884;52.538;13.820;2022-10-28T03:29:04;11.10;99.90
44843;DHT22;31884;52.538;13.820;2022-10-28T03:31:30;11.00;99.90
44843;DHT22;31884;52.538;13.820;2022-10-28T03:33:55;11.00;99.90
44843;DHT22;31884;52.538;13.820;2022-10-28T03:36:21;11.00;99.90
44843;DHT22;31884;52.538;13.820;2022-10-28T03:38:46;10.90;99.90
44843;DHT22;31884;52.538;13.820;2022-10-28T03:41:12;10.90;99.90
44843;DHT22;31884;52.538;13.820;2022-10-28T03:43:37;10.90;99.90
44843;DHT22;31884;52.538;13.820;2022-10-28T03:46:03;10.80;99.90
44843;DHT22;31884;52.538;13.820;2022-10-28T03:48:28;10.70;99.90
44843;DHT22;31884;52.538;13.820;2022-10-28T03:50:54;10.70;99.90
44843;DHT22;31884;52.538;13.820;2022-10-28T03:53:21;10.70;99.90
44843;DHT22;31884;52.538;13.820;2022-10-28T03:55:59;10.60;99.90
44843;DHT22;31884;52.538;13.820;2022-10-28T03:58:25;10.50;99.90
44843;DHT22;31884;52.538;13.820;2022-10-28T04:00:52;10.50;99.90
44843;DHT22;31884;52.538;13.820;2022-10-28T04:03:19;10.40;99.90
44843;DHT22;31884;52.538;13.820;2022-10-28T04:05:45;10.40;99.90
44843;DHT22;31884;52.538;13.820;2022-10-28T04:08:14;10.40;99.90
44843;DHT22;31884;52.538;13.820;2022-10-28T04:10:40;10.30;99.90
44843;DHT22;31884;52.538;13.820;2022-10-28T04:13:06;10.30;99.90
44843;DHT22;31884;52.538;13.820;2022-10-28T04:15:32;10.20;99.90
44843;DHT22;31884;52.538;13.820;2022-10-28T04:17:58;10.20;99.90
44843;DHT22;31884;52.538;13.820;2022-10-28T04:20:24;10.10;99.90
44843;DHT22;31884;52.538;13.820;2022-10-28T04:22:50;10.10;99.90
44843;DHT22;31884;52.538;13.820;2022-10-28T04:25:15;10.00;99.90
44843;DHT22;31884;52.538;13.820;2022-10-28T04:27:43;10.00;99.90
44843;DHT22;31884;52.538;13.820;2022-10-28T04:30:09;9.90;99.90
44843;DHT22;31884;52.538;13.820;2022-10-28T04:32:37;9.90;99.90
44843;DHT22;31884;52.538;13.820;2022-10-28T04:35:03;9.90;99.90
44843;DHT22;31884;52.538;13.820;2022-10-28T04:37:29;9.90;99.90
44843;DHT22;31884;52.538;13.820;2022-10-28T04:39:54;9.80;99.90
44843;DHT22;31884;52.538;13.820;2022-10-28T04:42:22;9.80;99.90
44843;DHT22;31884;52.538;13.820;2022-10-28T04:44:47;9.80;99.90
44843;DHT22;31884;52.538;13.820;2022-10-28T04:47:13;9.70;99.90
44843;DHT22;31884;52.538;13.820;2022-10-28T04:49:38;9.70;99.90
44843;DHT22;31884;52.538;13.820;2022-10-28T04:52:04;9.70;99.90
44843;DHT22;31884;52.538;13.820;2022-10-28T04:54:29;9.70;99.90
44843;DHT22;31884;52.538;13.820;2022-10-28T04:56:55;9.60;99.90
44843;DHT22;31884;52.538;13.820;2022-10-28T04:59:20;9.60;99.90
44843;DHT22;31884;52.538;13.820;2022-10-28T05:01:46;9.60;99.90
44843;DHT22;31884;52.538;13.820;2022-10-28T05:04:11;9.50;99.90
44843;DHT22;31884;52.538;13.820;2022-10-28T05:06:37;9.50;99.90
44843;DHT22;31884;52.538;13.820;2022-10-28T05:09:02;9.40;99.90
44843;DHT22;31884;52.538;13.820;2022-10-28T05:11:28;9.40;99.90
44843;DHT22;31884;52.538;13.820;2022-10-28T05:13:53;9.40;99.90
44843;DHT22;31884;52.538;13.820;2022-10-28T05:16:19;9.40;99.90
44843;DHT22;31884;52.538;13.820;2022-10-28T05:18:44;9.40;99.90
44843;DHT22;31884;52.538;13.820;2022-10-28T05:21:10;9.40;99.90
44843;DHT22;31884;52.538;13.820;2022-10-28T05:23:35;9.30;99.90
44843;DHT22;31884;52.538;13.820;2022-10-28T05:26:01;9.30;99.90
44843;DHT22;31884;52.538;13.820;2022-10-28T05:28:26;9.30;99.90
44843;DHT22;31884;52.538;13.820;2022-10-28T05:30:52;9.30;99.90
44843;DHT22;31884;52.538;13.820;2022-10-28T05:33:18;9.30;99.90
44843;DHT22;31884;52.538;13.820;2022-10-28T05:35:43;9.20;99.90
44843;DHT22;31884;52.538;13.820;2022-10-28T05:38:09;9.30;99.90
44843;DHT22;31884;52.538;13.820;2022-10-28T05:40:34;9.20;99.90
44843;DHT22;31884;52.538;13.820;2022-10-28T05:43:01;9.30;99.90
44843;DHT22;31884;52.538;13.820;2022-10-28T05:45:27;9.30;99.90
44843;DHT22;31884;52.538;13.820;2022-10-28T05:47:52;9.30;99.90
44843;DHT22;31884;52.538;13.820;2022-10-28T05:50:18;9.40;99.90
44843;DHT22;31884;52.538;13.820;2022-10-28T05:52:54;9.40;99.90
44843;DHT22;31884;52.538;13.820;2022-10-28T05:55:21;9.40;99.90
44843;DHT22;31884;52.538;13.820;2022-10-28T05:57:48;9.50;99.90
44843;DHT22;31884;52.538;13.820;2022-10-28T06:00:16;9.50;99.90
44843;DHT22;31884;52.538;13.820;2022-10-28T06:02:42;9.50;99.90
44843;DHT22;31884;52.538;13.820;2022-10-28T06:05:08;9.60;99.90
44843;DHT22;31884;52.538;13.820;2022-10-28T06:07:34;9.70;99.90
44843;DHT22;31884;52.538;13.820;2022-10-28T06:10:01;9.70;99.90
44843;DHT22;31884;52.538;13.820;2022-10-28T06:12:27;9.70;99.90
44843;DHT22;31884;52.538;13.820;2022-10-28T06:14:52;9.80;99.90
44843;DHT22;31884;52.538;13.820;2022-10-28T06:17:18;9.80;99.90
44843;DHT22;31884;52.538;13.820;2022-10-28T06:19:43;9.80;99.90
44843;DHT22;31884;52.538;13.820;2022-10-28T06:22:09;9.90;99.90
44843;DHT22;31884;52.538;13.820;2022-10-28T06:24:34;10.00;99.90
44843;DHT22;31884;52.538;13.820;2022-10-28T06:27:00;10.00;99.90
44843;DHT22;31884;52.538;13.820;2022-10-28T06:29:25;10.10;99.90
44843;DHT22;31884;52.538;13.820;2022-10-28T06:31:51;10.10;99.90
44843;DHT22;31884;52.538;13.820;2022-10-28T06:34:16;10.20;99.90
44843;DHT22;31884;52.538;13.820;2022-10-28T06:36:42;10.30;99.90
44843;DHT22;31884;52.538;13.820;2022-10-28T06:39:07;10.30;99.90
44843;DHT22;31884;52.538;13.820;2022-10-28T06:41:33;10.40;99.90
44843;DHT22;31884;52.538;13.820;2022-10-28T06:43:59;10.50;99.90
44843;DHT22;31884;52.538;13.820;2022-10-28T06:46:24;10.60;99.90
44843;DHT22;31884;52.538;13.820;2022-10-28T06:48:52;10.70;99.90
44843;DHT22;31884;52.538;13.820;2022-10-28T06:51:18;10.80;99.90
44843;DHT22;31884;52.538;13.820;2022-10-28T06:53:50;10.90;99.90
44843;DHT22;31884;52.538;13.820;2022-10-28T06:56:16;11.00;99.90
44843;DHT22;31884;52.538;13.820;2022-10-28T06:58:42;11.00;99.90
44843;DHT22;31884;52.538;13.820;2022-10-28T07:01:07;11.10;99.90
44843;DHT22;31884;52.538;13.820;2022-10-28T07:03:33;11.20;99.90
44843;DHT22;31884;52.538;13.820;2022-10-28T07:05:59;11.30;99.90
44843;DHT22;31884;52.538;13.820;2022-10-28T07:08:25;11.40;99.90
44843;DHT22;31884;52.538;13.820;2022-10-28T07:10:56;11.60;99.90
44843;DHT22;31884;52.538;13.820;2022-10-28T07:13:22;11.70;99.90
44843;DHT22;31884;52.538;13.820;2022-10-28T07:15:55;11.80;99.90
44843;DHT22;31884;52.538;13.820;2022-10-28T07:18:21;11.90;99.90
44843;DHT22;31884;52.538;13.820;2022-10-28T07:20:48;12.00;99.90
44843;DHT22;31884;52.538;13.820;2022-10-28T07:23:13;12.20;99.90
44843;DHT22;31884;52.538;13.820;2022-10-28T07:25:39;12.40;99.90
44843;DHT22;31884;52.538;13.820;2022-10-28T07:28:04;12.50;99.90
44843;DHT22;31884;52.538;13.820;2022-10-28T07:30:31;12.60;99.90
44843;DHT22;31884;52.538;13.820;2022-10-28T07:32:56;12.80;99.90
44843;DHT22;31884;52.538;13.820;2022-10-28T07:35:28;12.90;99.90
44843;DHT22;31884;52.538;13.820;2022-10-28T07:37:54;13.10;99.90
44843;DHT22;31884;52.538;13.820;2022-10-28T07:40:21;13.30;99.90
44843;DHT22;31884;52.538;13.820;2022-10-28T07:42:46;13.50;99.90
44843;DHT22;31884;52.538;13.820;2022-10-28T07:45:12;13.70;99.90
44843;DHT22;31884;52.538;13.820;2022-10-28T07:47:38;14.00;99.90
44843;DHT22;31884;52.538;13.820;2022-10-28T07:50:04;14.20;99.90
44843;DHT22;31884;52.538;13.820;2022-10-28T07:52:30;14.50;99.90
44843;DHT22;31884;52.538;13.820;2022-10-28T07:54:56;14.70;99.90
44843;DHT22;31884;52.538;13.820;2022-10-28T07:57:21;14.90;99.90
44843;DHT22;31884;52.538;13.820;2022-10-28T07:59:47;15.10;99.90
44843;DHT22;31884;52.538;13.820;2022-10-28T08:02:18;15.20;99.90
44843;DHT22;31884;52.538;13.820;2022-10-28T08:04:44;15.40;99.90
44843;DHT22;31884;52.538;13.820;2022-10-28T08:07:10;15.70;99.90
44843;DHT22;31884;52.538;13.820;2022-10-28T08:09:36;15.90;99.90
44843;DHT22;31884;52.538;13.820;2022-10-28T08:12:01;16.30;99.90
44843;DHT22;31884;52.538;13.820;2022-10-28T08:14:27;16.60;99.90
44843;DHT22;31884;52.538;13.820;2022-10-28T08:16:52;17.00;99.90
44843;DHT22;31884;52.538;13.820;2022-10-28T08:19:18;17.40;99.90
44843;DHT22;31884;52.538;13.820;2022-10-28T08:21:43;17.80;99.90
44843;DHT22;31884;52.538;13.820;2022-10-28T08:24:09;18.10;99.90
44843;DHT22;31884;52.538;13.820;2022-10-28T08:26:34;18.30;99.90
44843;DHT22;31884;52.538;13.820;2022-10-28T08:29:00;18.40;99.90
44843;DHT22;31884;52.538;13.820;2022-10-28T08:31:25;18.50;99.90
44843;DHT22;31884;52.538;13.820;2022-10-28T08:33:51;18.50;99.90
44843;DHT22;31884;52.538;13.820;2022-10-28T08:36:16;18.50;99.90
44843;DHT22;31884;52.538;13.820;2022-10-28T08:38:43;18.60;99.90
44843;DHT22;31884;52.538;13.820;2022-10-28T08:41:18;18.70;99.90
44843;DHT22;31884;52.538;13.820;2022-10-28T08:46:53;18.90;99.90
44843;DHT22;31884;52.538;13.820;2022-10-28T08:49:23;19.10;99.90
44843;DHT22;31884;52.538;13.820;2022-10-28T08:52:10;19.30;99.90
44843;DHT22;31884;52.538;13.820;2022-10-28T08:54:43;19.70;99.90
44843;DHT22;31884;52.538;13.820;2022-10-28T08:57:21;19.90;99.90
44843;DHT22;31884;52.538;13.820;2022-10-28T08:59:50;20.20;99.90
44843;DHT22;31884;52.538;13.820;2022-10-28T09:02:21;20.40;99.90
44843;DHT22;31884;52.538;13.820;2022-10-28T09:04:55;20.50;99.90
44843;DHT22;31884;52.538;13.820;2022-10-28T09:07:23;20.50;99.90
44843;DHT22;31884;52.538;13.820;2022-10-28T09:09:50;20.60;99.90
44843;DHT22;31884;52.538;13.820;2022-10-28T09:15:50;20.60;99.90
44843;DHT22;31884;52.538;13.820;2022-10-28T09:20:53;20.60;99.90
44843;DHT22;31884;52.538;13.820;2022-10-28T09:23:27;20.50;99.90
44843;DHT22;31884;52.538;13.820;2022-10-28T09:29:20;20.40;99.90
44843;DHT22;31884;52.538;13.820;2022-10-28T09:31:54;20.40;99.90
44843;DHT22;31884;52.538;13.820;2022-10-28T09:37:15;20.30;99.90
44843;DHT22;31884;52.538;13.820;2022-10-28T09:39:55;20.40;99.90
44843;DHT22;31884;52.538;13.820;2022-10-28T09:42:28;20.40;99.90
44843;DHT22;31884;52.538;13.820;2022-10-28T09:45:04;20.40;99.90
44843;DHT22;31884;52.538;13.820;2022-10-28T09:47:57;20.50;99.90
44843;DHT22;31884;52.538;13.820;2022-10-28T09:50:28;20.40;95.00
44843;DHT22;31884;52.538;13.820;2022-10-28T09:55:41;20.40;99.90
44843;DHT22;31884;52.538;13.820;2022-10-28T09:58:09;20.30;99.90
44843;DHT22;31884;52.538;13.820;2022-10-28T10:00:36;20.20;92.90
44843;DHT22;31884;52.538;13.820;2022-10-28T10:03:01;20.20;98.00
44843;DHT22;31884;52.538;13.820;2022-10-28T10:05:27;20.20;98.40
44843;DHT22;31884;52.538;13.820;2022-10-28T10:08:02;20.20;98.80
44843;DHT22;31884;52.538;13.820;2022-10-28T10:10:34;20.20;93.20
44843;DHT22;31884;52.538;13.820;2022-10-28T10:13:05;20.10;94.00
44843;DHT22;31884;52.538;13.820;2022-10-28T10:15:37;20.00;97.40
44843;DHT22;31884;52.538;13.820;2022-10-28T10:18:06;20.10;96.70
44843;DHT22;31884;52.538;13.820;2022-10-28T10:20:54;20.10;97.50
44843;DHT22;31884;52.538;13.820;2022-10-28T10:23:34;20.00;94.00
44843;DHT22;31884;52.538;13.820;2022-10-28T10:26:03;19.90;97.40
44843;DHT22;31884;52.538;13.820;2022-10-28T10:28:32;19.90;99.00
44843;DHT22;31884;52.538;13.820;2022-10-28T10:31:00;19.90;99.00
44843;DHT22;31884;52.538;13.820;2022-10-28T10:33:38;20.00;98.10
44843;DHT22;31884;52.538;13.820;2022-10-28T10:36:14;19.90;95.90
44843;DHT22;31884;52.538;13.820;2022-10-28T10:38:50;19.90;97.50
44843;DHT22;31884;52.538;13.820;2022-10-28T10:41:38;20.00;96.90
44843;DHT22;31884;52.538;13.820;2022-10-28T10:46:46;20.00;94.30
44843;DHT22;31884;52.538;13.820;2022-10-28T10:49:13;20.00;96.30
44843;DHT22;31884;52.538;13.820;2022-10-28T10:51:49;19.90;96.60
44843;DHT22;31884;52.538;13.820;2022-10-28T10:54:15;20.00;96.20
44843;DHT22;31884;52.538;13.820;2022-10-28T10:56:41;20.00;97.10
44843;DHT22;31884;52.538;13.820;2022-10-28T11:01:47;20.00;97.20
44843;DHT22;31884;52.538;13.820;2022-10-28T11:04:18;20.10;97.40
44843;DHT22;31884;52.538;13.820;2022-10-28T11:06:48;20.10;96.00
44843;DHT22;31884;52.538;13.820;2022-10-28T11:09:36;20.20;95.00
44843;DHT22;31884;52.538;13.820;2022-10-28T11:14:56;20.20;96.30
44843;DHT22;31884;52.538;13.820;2022-10-28T11:17:24;20.30;97.50
44843;DHT22;31884;52.538;13.820;2022-10-28T11:19:53;20.30;96.20
44843;DHT22;31884;52.538;13.820;2022-10-28T11:22:41;20.40;96.50
44843;DHT22;31884;52.538;13.820;2022-10-28T11:25:34;20.50;96.50
44843;DHT22;31884;52.538;13.820;2022-10-28T11:28:31;20.70;91.90
44843;DHT22;31884;52.538;13.820;2022-10-28T11:31:25;20.90;90.30
44843;DHT22;31884;52.538;13.820;2022-10-28T11:37:23;21.10;90.80
44843;DHT22;31884;52.538;13.820;2022-10-28T11:39:58;21.20;87.90
44843;DHT22;31884;52.538;13.820;2022-10-28T11:45:56;21.40;90.00
44843;DHT22;31884;52.538;13.820;2022-10-28T11:48:53;21.50;89.50
44843;DHT22;31884;52.538;13.820;2022-10-28T11:51:50;21.50;90.10
44843;DHT22;31884;52.538;13.820;2022-10-28T11:56:59;21.60;90.50
44843;DHT22;31884;52.538;13.820;2022-10-28T11:59:35;21.60;90.10
44843;DHT22;31884;52.538;13.820;2022-10-28T12:02:37;21.50;90.60
44843;DHT22;31884;52.538;13.820;2022-10-28T12:10:34;21.50;90.60
44843;DHT22;31884;52.538;13.820;2022-10-28T12:13:12;21.40;91.50
44843;DHT22;31884;52.538;13.820;2022-10-28T12:16:06;21.40;91.70
44843;DHT22;31884;52.538;13.820;2022-10-28T12:18:45;21.40;91.60
44843;DHT22;31884;52.538;13.820;2022-10-28T12:21:14;21.40;89.60
44843;DHT22;31884;52.538;13.820;2022-10-28T12:23:44;21.40;91.20
44843;DHT22;31884;52.538;13.820;2022-10-28T12:26:14;21.40;91.10
44843;DHT22;31884;52.538;13.820;2022-10-28T12:28:47;21.40;89.30
44843;DHT22;31884;52.538;13.820;2022-10-28T12:31:19;21.40;90.50
44843;DHT22;31884;52.538;13.820;2022-10-28T12:33:49;21.40;89.10
44843;DHT22;31884;52.538;13.820;2022-10-28T12:36:22;21.40;90.50
44843;DHT22;31884;52.538;13.820;2022-10-28T12:39:05;21.40;91.00
44843;DHT22;31884;52.538;13.820;2022-10-28T12:41:56;21.40;90.50
44843;DHT22;31884;52.538;13.820;2022-10-28T12:44:25;21.40;90.10
44843;DHT22;31884;52.538;13.820;2022-10-28T12:46:59;21.50;91.50
44843;DHT22;31884;52.538;13.820;2022-10-28T12:50:02;21.50;91.30
44843;DHT22;31884;52.538;13.820;2022-10-28T12:52:38;21.50;91.20
44843;DHT22;31884;52.538;13.820;2022-10-28T12:55:25;21.50;91.10
44843;DHT22;31884;52.538;13.820;2022-10-28T12:58:13;21.50;90.10
44843;DHT22;31884;52.538;13.820;2022-10-28T13:00:43;21.50;91.70
44843;DHT22;31884;52.538;13.820;2022-10-28T13:03:14;21.50;91.70
44843;DHT22;31884;52.538;13.820;2022-10-28T13:08:56;21.50;91.00
44843;DHT22;31884;52.538;13.820;2022-10-28T13:15:01;21.60;90.70
44843;DHT22;31884;52.538;13.820;2022-10-28T13:22:57;21.60;91.60
44843;DHT22;31884;52.538;13.820;2022-10-28T13:25:49;21.50;91.30
44843;DHT22;31884;52.538;13.820;2022-10-28T13:28:18;21.50;88.20
44843;DHT22;31884;52.538;13.820;2022-10-28T13:30:57;21.50;86.00
44843;DHT22;31884;52.538;13.820;2022-10-28T13:33:25;21.50;86.90
44843;DHT22;31884;52.538;13.820;2022-10-28T13:35:53;21.50;88.30
44843;DHT22;31884;52.538;13.820;2022-10-28T13:38:22;21.50;87.40
44843;DHT22;31884;52.538;13.820;2022-10-28T13:49:25;21.40;88.10
44843;DHT22;31884;52.538;13.820;2022-10-28T13:51:59;21.30;89.50
44843;DHT22;31884;52.538;13.820;2022-10-28T13:57:07;21.20;90.60
44843;DHT22;31884;52.538;13.820;2022-10-28T13:59:53;21.20;90.50
44843;DHT22;31884;52.538;13.820;2022-10-28T14:02:35;21.20;90.50
44843;DHT22;31884;52.538;13.820;2022-10-28T14:05:06;21.20;90.60
44843;DHT22;31884;52.538;13.820;2022-10-28T14:07:34;21.10;90.60
44843;DHT22;31884;52.538;13.820;2022-10-28T14:10:24;21.10;90.50
44843;DHT22;31884;52.538;13.820;2022-10-28T14:15:38;21.00;91.10
44843;DHT22;31884;52.538;13.820;2022-10-28T14:18:21;20.90;90.70
44843;DHT22;31884;52.538;13.820;2022-10-28T14:52:28;20.30;96.40
44843;DHT22;31884;52.538;13.820;2022-10-28T14:54:57;20.30;96.80
44843;DHT22;31884;52.538;13.820;2022-10-28T14:57:28;20.20;97.30
44843;DHT22;31884;52.538;13.820;2022-10-28T14:59:54;20.10;97.70
44843;DHT22;31884;52.538;13.820;2022-10-28T15:02:31;20.10;98.20
44843;DHT22;31884;52.538;13.820;2022-10-28T15:05:42;20.00;98.40
44843;DHT22;31884;52.538;13.820;2022-10-28T15:07:49;19.90;98.90
44843;DHT22;31884;52.538;13.820;2022-10-28T15:10:24;19.90;99.70
44843;DHT22;31884;52.538;13.820;2022-10-28T15:12:51;19.70;99.90
44843;DHT22;31884;52.538;13.820;2022-10-28T15:17:44;19.60;99.90
44843;DHT22;31884;52.538;13.820;2022-10-28T15:20:28;19.50;99.90
44843;DHT22;31884;52.538;13.820;2022-10-28T15:25:35;19.40;99.90
44843;DHT22;31884;52.538;13.820;2022-10-28T15:28:01;19.30;99.90
44843;DHT22;31884;52.538;13.820;2022-10-28T15:30:27;19.20;99.90
44843;DHT22;31884;52.538;13.820;2022-10-28T15:32:53;19.10;99.90
44843;DHT22;31884;52.538;13.820;2022-10-28T15:38:01;19.00;99.90
44843;DHT22;31884;52.538;13.820;2022-10-28T15:40:29;18.90;99.90
44843;DHT22;31884;52.538;13.820;2022-10-28T15:43:03;18.80;99.90
44843;DHT22;31884;52.538;13.820;2022-10-28T15:45:31;18.70;99.90
44843;DHT22;31884;52.538;13.820;2022-10-28T15:47:58;18.60;99.90
44843;DHT22;31884;52.538;13.820;2022-10-28T15:50:27;18.60;99.90
44843;DHT22;31884;52.538;13.820;2022-10-28T15:53:20;18.50;99.90
44843;DHT22;31884;52.538;13.820;2022-10-28T15:56:18;18.40;99.90
44843;DHT22;31884;52.538;13.820;2022-10-28T15:58:46;18.30;99.90
44843;DHT22;31884;52.538;13.820;2022-10-28T16:04:05;18.10;99.90
44843;DHT22;31884;52.538;13.820;2022-10-28T16:06:35;18.10;99.90
44843;DHT22;31884;52.538;13.820;2022-10-28T16:09:17;18.00;99.90
44843;DHT22;31884;52.538;13.820;2022-10-28T16:11:46;18.00;99.90
44843;DHT22;31884;52.538;13.820;2022-10-28T16:14:36;18.00;99.90
44843;DHT22;31884;52.538;13.820;2022-10-28T16:17:18;17.90;99.90
44843;DHT22;31884;52.538;13.820;2022-10-28T16:19:53;17.90;99.90
44843;DHT22;31884;52.538;13.820;2022-10-28T16:22:20;17.80;99.90
44843;DHT22;31884;52.538;13.820;2022-10-28T16:24:48;17.80;99.90
44843;DHT22;31884;52.538;13.820;2022-10-28T16:27:15;17.70;99.90
44843;DHT22;31884;52.538;13.820;2022-10-28T16:29:40;17.70;99.90
44843;DHT22;31884;52.538;13.820;2022-10-28T16:32:08;17.70;99.90
44843;DHT22;31884;52.538;13.820;2022-10-28T16:34:34;17.60;99.90
44843;DHT22;31884;52.538;13.820;2022-10-28T16:37:00;17.50;99.90
44843;DHT22;31884;52.538;13.820;2022-10-28T16:39:25;17.50;99.90
44843;DHT22;31884;52.538;13.820;2022-10-28T16:41:52;17.40;99.90
44843;DHT22;31884;52.538;13.820;2022-10-28T16:44:18;17.40;99.90
44843;DHT22;31884;52.538;13.820;2022-10-28T16:46:44;17.30;99.90
44843;DHT22;31884;52.538;13.820;2022-10-28T16:49:09;17.20;99.90
44843;DHT22;31884;52.538;13.820;2022-10-28T16:51:35;17.20;99.90
44843;DHT22;31884;52.538;13.820;2022-10-28T16:54:00;17.10;99.90
44843;DHT22;31884;52.538;13.820;2022-10-28T16:56:26;17.10;99.90
44843;DHT22;31884;52.538;13.820;2022-10-28T16:58:51;17.00;99.90
44843;DHT22;31884;52.538;13.820;2022-10-28T17:01:19;16.90;99.90
44843;DHT22;31884;52.538;13.820;2022-10-28T17:03:45;16.90;99.90
44843;DHT22;31884;52.538;13.820;2022-10-28T17:06:11;16.80;99.90
44843;DHT22;31884;52.538;13.820;2022-10-28T17:08:36;16.70;99.90
44843;DHT22;31884;52.538;13.820;2022-10-28T17:11:02;16.60;99.90
44843;DHT22;31884;52.538;13.820;2022-10-28T17:13:29;16.60;99.90
44843;DHT22;31884;52.538;13.820;2022-10-28T17:15:55;16.50;99.90
44843;DHT22;31884;52.538;13.820;2022-10-28T17:18:21;16.40;99.90
44843;DHT22;31884;52.538;13.820;2022-10-28T17:21:00;16.40;99.90
44843;DHT22;31884;52.538;13.820;2022-10-28T17:23:26;16.30;99.90
44843;DHT22;31884;52.538;13.820;2022-10-28T17:25:59;16.20;99.90
44843;DHT22;31884;52.538;13.820;2022-10-28T17:28:25;16.10;99.90
44843;DHT22;31884;52.538;13.820;2022-10-28T17:30:51;16.00;99.90
44843;DHT22;31884;52.538;13.820;2022-10-28T17:33:16;15.90;99.90
44843;DHT22;31884;52.538;13.820;2022-10-28T17:35:42;15.80;99.90
44843;DHT22;31884;52.538;13.820;2022-10-28T17:38:07;15.80;99.90
44843;DHT22;31884;52.538;13.820;2022-10-28T17:40:33;15.70;99.90
44843;DHT22;31884;52.538;13.820;2022-10-28T17:42:59;15.60;99.90
44843;DHT22;31884;52.538;13.820;2022-10-28T17:45:25;15.50;99.90
44843;DHT22;31884;52.538;13.820;2022-10-28T17:47:50;15.40;99.90
44843;DHT22;31884;52.538;13.820;2022-10-28T17:50:16;15.40;99.90
44843;DHT22;31884;52.538;13.820;2022-10-28T17:52:41;15.30;99.90
44843;DHT22;31884;52.538;13.820;2022-10-28T17:55:07;15.20;99.90